Time;durP1;ratioP1;P1;durP2;ratioP2;P2;SDS_P1;SDS_P2;PMS_P1;PMS_P2;Temp;Humidity;BMP_temperature;BMP_pressure;BME280_temperature;BME280_humidity;BME280_pressure;Samples;Min_cycle;Max_cycle;Signal;HPM_P1;HPM_P2
2022/08/05 00:01:52;;;;;;;1.95;1.70;;;28.40;45.50;;;-147.20;100.00;58430.41;5115124;28;20050;-11
2022/08/05 00:04:17;;;;;;;2.30;1.73;;;28.40;45.40;;;-147.20;100.00;58430.41;5115026;28;20050;-10
2022/08/05 00:06:44;;;;;;;1.63;1.50;;;28.40;45.50;;;-147.20;100.00;58430.41;5114875;28;20047;-10
2022/08/05 00:09:09;;;;;;;2.08;1.85;;;28.40;45.60;;;-147.20;100.00;58430.41;5114759;28;20043;-11
2022/08/05 00:11:35;;;;;;;2.00;1.70;;;28.40;45.60;;;-147.20;100.00;58430.41;5115332;28;20047;-10
2022/08/05 00:14:02;;;;;;;1.58;1.48;;;28.40;45.60;;;-147.20;100.00;58430.41;5115082;28;20056;-10
2022/08/05 00:16:28;;;;;;;2.95;2.00;;;28.40;45.60;;;-147.20;100.00;58430.41;5114690;28;20393;-11
2022/08/05 00:18:54;;;;;;;2.33;1.70;;;28.40;45.60;;;-147.20;100.00;58430.41;5114536;28;20051;-10
2022/08/05 00:21:20;;;;;;;1.73;1.63;;;28.40;45.60;;;-147.20;100.00;58430.41;5114679;28;20135;-10
2022/08/05 00:23:47;;;;;;;1.80;1.70;;;28.40;45.70;;;-147.20;100.00;58430.41;5114635;28;20039;-10
2022/08/05 00:26:14;;;;;;;1.70;1.60;;;28.40;45.60;;;-147.20;100.00;58430.41;5114760;28;20092;-10
2022/08/05 00:28:40;;;;;;;1.60;1.42;;;28.40;45.70;;;-147.20;100.00;58430.41;5114710;28;20043;-10
2022/08/05 00:31:06;;;;;;;2.20;1.83;;;28.30;45.60;;;-147.20;100.00;58430.41;5114908;28;20370;-10
2022/08/05 00:33:34;;;;;;;1.75;1.65;;;28.40;45.70;;;-147.20;100.00;58430.41;5114504;28;20040;-11
2022/08/05 00:36:00;;;;;;;1.85;1.50;;;28.40;45.70;;;-147.20;100.00;58430.41;5080105;28;20052;-10
2022/08/05 00:38:25;;;;;;;2.00;1.80;;;28.40;45.70;;;-147.20;100.00;58430.41;5114411;28;20051;-10
2022/08/05 00:40:55;;;;;;;1.40;1.30;;;28.30;45.60;;;-147.20;100.00;58430.41;5114448;28;20051;-10
2022/08/05 00:43:21;;;;;;;1.60;1.45;;;28.40;45.70;;;-147.20;100.00;58430.41;5114054;28;20051;-10
2022/08/05 00:45:47;;;;;;;1.58;1.48;;;28.30;45.70;;;-147.20;100.00;58430.41;5114676;28;20055;-10
2022/08/05 00:48:17;;;;;;;1.60;1.50;;;28.30;45.70;;;-147.20;100.00;58430.41;5114384;28;20134;-10
2022/08/05 00:50:46;;;;;;;1.63;1.52;;;28.30;45.70;;;-147.20;100.00;58430.41;5114082;28;20047;-11
2022/08/05 00:53:15;;;;;;;1.80;1.70;;;28.30;45.70;;;-147.20;100.00;58430.41;5114151;28;20089;-10
2022/08/05 00:55:42;;;;;;;1.90;1.60;;;28.30;45.80;;;-147.20;100.00;58430.41;5096361;28;20039;-10
2022/08/05 00:58:08;;;;;;;1.48;1.38;;;28.30;45.80;;;-147.20;100.00;58430.41;5114148;28;20080;-10
2022/08/05 01:00:34;;;;;;;1.90;1.80;;;28.30;45.80;;;-147.20;100.00;58430.41;5114310;28;20056;-10
2022/08/05 01:03:00;;;;;;;1.70;1.58;;;28.30;45.80;;;-147.20;100.00;58430.41;5114711;28;20090;-10
2022/08/05 01:05:26;;;;;;;1.60;1.50;;;28.30;45.90;;;-147.20;100.00;58430.41;5114256;28;20506;-10
2022/08/05 01:07:52;;;;;;;1.67;1.58;;;28.30;45.80;;;-147.20;100.00;58430.41;5114061;28;20085;-10
2022/08/05 01:10:22;;;;;;;1.67;1.58;;;28.30;45.90;;;-147.20;100.00;58430.41;5114259;28;20039;-11
2022/08/05 01:12:55;;;;;;;1.50;1.40;;;28.30;45.90;;;-147.20;100.00;58430.41;5114295;28;20451;-11
2022/08/05 01:15:32;;;;;;;1.63;1.52;;;28.30;45.90;;;-147.20;100.00;58430.41;5095629;28;20075;-10
2022/08/05 01:18:04;;;;;;;1.70;1.60;;;28.30;45.90;;;-147.20;100.00;58430.41;5078484;28;20420;-10
2022/08/05 01:21:02;;;;;;;1.80;1.70;;;28.30;45.90;;;-147.20;100.00;58430.41;5114110;28;20050;-10
2022/08/05 01:24:05;;;;;;;2.17;1.80;;;28.30;45.90;;;-147.20;100.00;58430.41;5113197;28;20044;-10
2022/08/05 01:27:00;;;;;;;3.10;1.75;;;28.20;45.90;;;-147.20;100.00;58430.41;5060738;28;20047;-11
2022/08/05 01:29:35;;;;;;;1.60;1.50;;;28.20;45.90;;;-147.20;100.00;58430.41;5113695;28;20104;-10
2022/08/05 01:32:08;;;;;;;1.65;1.50;;;28.20;45.80;;;-147.20;100.00;58430.41;5095757;28;20096;-10
2022/08/05 01:34:42;;;;;;;1.50;1.40;;;28.30;46.00;;;-147.20;100.00;58430.41;5096075;28;20050;-10
2022/08/05 01:37:17;;;;;;;2.10;1.50;;;28.20;45.90;;;-147.20;100.00;58430.41;5095242;28;20047;-10
2022/08/05 01:39:46;;;;;;;1.70;1.60;;;28.20;45.90;;;-147.20;100.00;58430.41;5095356;28;20408;-10
2022/08/05 01:42:15;;;;;;;1.65;1.55;;;28.20;45.90;;;-147.20;100.00;58430.41;5095294;28;20522;-11
2022/08/05 01:44:43;;;;;;;1.67;1.50;;;28.20;45.90;;;-147.20;100.00;58430.41;5095280;28;20084;-10
2022/08/05 01:47:10;;;;;;;1.60;1.50;;;28.20;45.90;;;-147.20;100.00;58430.41;5095148;28;20070;-11
2022/08/05 01:49:39;;;;;;;2.75;1.60;;;28.20;45.90;;;-147.20;100.00;58430.41;5095130;28;20457;-10
2022/08/05 01:52:05;;;;;;;1.55;1.45;;;28.20;46.00;;;-147.20;100.00;58430.41;5095144;28;20051;-10
2022/08/05 01:54:38;;;;;;;1.73;1.42;;;28.20;45.90;;;-147.20;100.00;58430.41;5094224;28;20040;-10
2022/08/05 01:57:07;;;;;;;1.40;1.30;;;28.20;45.90;;;-147.20;100.00;58430.41;5113587;28;20386;-10
2022/08/05 01:59:36;;;;;;;1.85;1.70;;;28.20;45.90;;;-147.20;100.00;58430.41;5095189;28;20047;-10
2022/08/05 02:02:02;;;;;;;1.65;1.33;;;28.20;45.90;;;-147.20;100.00;58430.41;5094888;28;20401;-11
2022/08/05 02:04:31;;;;;;;1.90;1.80;;;28.20;45.90;;;-147.20;100.00;58430.41;5094973;28;20058;-10
2022/08/05 02:06:57;;;;;;;1.52;1.35;;;28.20;45.90;;;-147.20;100.00;58430.41;5095158;28;20546;-11
2022/08/05 02:09:24;;;;;;;1.88;1.70;;;28.20;45.90;;;-147.20;100.00;58430.41;5094909;28;20067;-11
2022/08/05 02:12:03;;;;;;;2.25;1.67;;;28.20;45.90;;;-147.20;100.00;58430.41;5113120;28;20048;-10
2022/08/05 02:14:42;;;;;;;1.60;1.50;;;28.20;46.00;;;-147.20;100.00;58430.41;5113373;28;20374;-10
2022/08/05 02:17:23;;;;;;;1.50;1.40;;;28.20;46.00;;;-147.20;100.00;58430.41;5094533;28;20405;-11
2022/08/05 02:19:55;;;;;;;1.75;1.65;;;28.20;46.00;;;-147.20;100.00;58430.41;5094322;28;20048;-10
2022/08/05 02:22:29;;;;;;;2.13;1.80;;;28.20;46.50;;;-147.20;100.00;58430.41;5095052;28;20048;-11
2022/08/05 02:25:24;;;;;;;2.17;1.52;;;28.20;46.00;;;-147.20;100.00;58430.41;5094764;28;20052;-10
2022/08/05 02:27:55;;;;;;;1.73;1.63;;;28.20;46.00;;;-147.20;100.00;58430.41;5084731;28;20058;-11
2022/08/05 02:30:24;;;;;;;2.10;1.70;;;28.20;46.60;;;-147.20;100.00;58430.41;5094882;28;20048;-11
2022/08/05 02:32:54;;;;;;;1.60;1.50;;;28.20;46.00;;;-147.20;100.00;58430.41;5112775;28;20505;-10
2022/08/05 02:35:24;;;;;;;2.83;2.00;;;28.20;46.00;;;-147.20;100.00;58430.41;5113113;28;20128;-11
2022/08/05 02:37:53;;;;;;;1.92;1.80;;;28.20;46.00;;;-147.20;100.00;58430.41;5094285;28;20060;-10
2022/08/05 02:40:20;;;;;;;1.92;1.55;;;28.20;46.00;;;-147.20;100.00;58430.41;5094503;28;20485;-10
2022/08/05 02:42:47;;;;;;;1.77;1.65;;;28.20;46.00;;;-147.20;100.00;58430.41;5077803;28;20116;-10
2022/08/05 02:45:15;;;;;;;1.58;1.48;;;28.10;46.00;;;-147.20;100.00;58430.41;5077516;28;20058;-11
2022/08/05 02:47:42;;;;;;;1.50;1.40;;;28.10;46.00;;;-147.20;100.00;58430.41;5094286;28;20047;-11
2022/08/05 02:50:12;;;;;;;1.95;1.70;;;28.20;46.10;;;-147.20;100.00;58430.41;5113136;28;20417;-10
2022/08/05 02:52:40;;;;;;;2.10;1.80;;;28.10;46.00;;;-147.20;100.00;58430.41;5094528;28;20048;-11
2022/08/05 02:55:08;;;;;;;1.77;1.40;;;28.10;46.00;;;-147.20;100.00;58430.41;5093676;28;20406;-11
2022/08/05 02:57:34;;;;;;;1.60;1.50;;;28.10;46.00;;;-147.20;100.00;58430.41;5094318;28;20086;-11
2022/08/05 03:00:00;;;;;;;2.50;1.67;;;28.20;46.10;;;-147.20;100.00;58430.41;5094256;28;20056;-10
2022/08/05 03:02:33;;;;;;;2.20;1.63;;;28.10;46.00;;;-147.20;100.00;58430.41;5112429;28;20048;-11
2022/08/05 03:05:00;;;;;;;1.70;1.60;;;28.10;46.10;;;-147.20;100.00;58430.41;5112729;28;20082;-10
2022/08/05 03:07:27;;;;;;;1.90;1.70;;;28.10;46.10;;;-147.20;100.00;58430.41;5115982;28;20485;-11
2022/08/05 03:09:56;;;;;;;1.60;1.50;;;28.10;46.10;;;-147.20;100.00;58430.41;5097692;28;20059;-10
2022/08/05 03:12:38;;;;;;;1.42;1.33;;;28.10;46.10;;;-147.20;100.00;58430.41;5116057;28;20055;-10
2022/08/05 03:15:08;;;;;;;1.67;1.33;;;28.10;46.10;;;-147.20;100.00;58430.41;5116202;28;20056;-10
2022/08/05 03:17:34;;;;;;;1.55;1.45;;;28.10;46.10;;;-147.20;100.00;58430.41;5115469;28;20130;-10
2022/08/05 03:20:00;;;;;;;1.60;1.50;;;28.10;46.10;;;-147.20;100.00;58430.41;5115845;28;20044;-10
2022/08/05 03:22:26;;;;;;;1.52;1.38;;;28.10;46.10;;;-147.20;100.00;58430.41;5115668;28;20538;-11
2022/08/05 03:24:53;;;;;;;1.83;1.60;;;28.10;46.70;;;-147.20;100.00;58430.41;5115737;28;20105;-10
2022/08/05 03:27:20;;;;;;;1.63;1.50;;;28.10;46.10;;;-147.20;100.00;58430.41;5116195;28;20052;-10
2022/08/05 03:29:46;;;;;;;1.85;1.60;;;28.10;46.10;;;-147.20;100.00;58430.41;5093745;28;20040;-10
2022/08/05 03:32:14;;;;;;;1.30;1.20;;;28.10;46.10;;;-147.20;100.00;58430.41;5115488;28;20047;-10
2022/08/05 03:34:44;;;;;;;2.00;1.48;;;28.10;46.20;;;-147.20;100.00;58430.41;5115592;28;20058;-10
2022/08/05 03:37:10;;;;;;;1.60;1.35;;;28.10;46.20;;;-147.20;100.00;58430.41;5115006;28;20050;-11
2022/08/05 03:39:37;;;;;;;1.55;1.45;;;28.10;46.80;;;-147.20;100.00;58430.41;5097126;28;20503;-10
2022/08/05 03:42:03;;;;;;;1.90;1.50;;;28.10;46.30;;;-147.20;100.00;58430.41;5115721;28;20047;-10
2022/08/05 03:44:29;;;;;;;1.58;1.48;;;28.10;46.30;;;-147.20;100.00;58430.41;5115366;28;20065;-10
2022/08/05 03:46:55;;;;;;;1.48;1.38;;;28.10;46.30;;;-147.20;100.00;58430.41;5115540;28;20056;-11
2022/08/05 03:49:24;;;;;;;1.95;1.40;;;28.10;46.30;;;-147.20;100.00;58430.41;5115288;28;20036;-11
2022/08/05 03:52:00;;;;;;;1.90;1.30;;;28.00;46.20;;;-147.20;100.00;58430.41;5115037;28;20044;-10
2022/08/05 03:54:43;;;;;;;1.50;1.40;;;28.10;46.30;;;-147.20;100.00;58430.41;5115735;28;20048;-10
2022/08/05 03:57:13;;;;;;;1.40;1.30;;;28.00;46.20;;;-147.20;100.00;58430.41;5114656;28;20054;-11
2022/08/05 04:00:04;;;;;;;3.22;1.83;;;28.10;46.30;;;-147.20;100.00;58430.41;5094235;28;20044;-11
2022/08/05 04:02:39;;;;;;;1.30;1.20;;;28.00;46.20;;;-147.20;100.00;58430.41;5098163;28;20064;-11
2022/08/05 04:05:08;;;;;;;2.38;1.63;;;28.00;46.20;;;-147.20;100.00;58430.41;5096771;28;20043;-11
2022/08/05 04:07:36;;;;;;;3.22;1.60;;;28.00;46.20;;;-147.20;100.00;58430.41;5114706;28;20415;-10
2022/08/05 04:10:02;;;;;;;1.58;1.40;;;28.00;46.20;;;-147.20;100.00;58430.41;5114919;28;20052;-10
2022/08/05 04:12:28;;;;;;;2.35;1.77;;;28.00;46.20;;;-147.20;100.00;58430.41;5097260;28;20071;-10
2022/08/05 04:14:54;;;;;;;1.90;1.73;;;28.00;46.30;;;-147.20;100.00;58430.41;5096910;28;20071;-11
2022/08/05 04:17:21;;;;;;;2.15;1.40;;;28.00;46.30;;;-147.20;100.00;58430.41;5113925;28;20043;-11
2022/08/05 04:19:47;;;;;;;1.52;1.42;;;28.00;46.20;;;-147.20;100.00;58430.41;5096057;28;20439;-10
2022/08/05 04:22:13;;;;;;;1.50;1.40;;;28.00;46.30;;;-147.20;100.00;58430.41;5114847;28;20051;-10
2022/08/05 04:24:42;;;;;;;2.08;1.65;;;28.00;46.30;;;-147.20;100.00;58430.41;5114663;28;20043;-10
2022/08/05 04:27:08;;;;;;;1.40;1.30;;;28.00;46.20;;;-147.20;100.00;58430.41;5114738;28;20058;-11
2022/08/05 04:29:34;;;;;;;1.70;1.30;;;28.00;46.80;;;-147.20;100.00;58430.41;5114605;28;20043;-11
2022/08/05 04:32:00;;;;;;;1.40;1.30;;;28.00;46.30;;;-147.20;100.00;58430.41;5114610;28;20051;-10
2022/08/05 04:34:26;;;;;;;2.15;1.33;;;28.00;46.20;;;-147.20;100.00;58430.41;5114652;28;20397;-11
2022/08/05 04:36:53;;;;;;;2.08;1.50;;;28.00;46.30;;;-147.20;100.00;58430.41;5115038;28;20401;-10
2022/08/05 04:39:20;;;;;;;1.73;1.48;;;28.00;46.20;;;-147.20;100.00;58430.41;5114561;28;20062;-10
2022/08/05 04:41:46;;;;;;;2.80;1.63;;;28.00;46.20;;;-147.20;100.00;58430.41;5114463;28;20073;-11
2022/08/05 04:44:13;;;;;;;2.15;1.60;;;28.00;46.20;;;-147.20;100.00;58430.41;5114399;28;20116;-11
2022/08/05 04:46:39;;;;;;;1.70;1.60;;;28.00;46.30;;;-147.20;100.00;58430.41;5114704;28;20047;-10
2022/08/05 04:49:06;;;;;;;1.55;1.45;;;28.00;46.20;;;-147.20;100.00;58430.41;5114085;28;20142;-10
2022/08/05 04:51:32;;;;;;;1.42;1.33;;;28.10;46.30;;;-147.20;100.00;58430.41;5114293;28;20515;-10
2022/08/05 04:54:01;;;;;;;1.48;1.38;;;28.00;46.20;;;-147.20;100.00;58430.41;5114632;28;20071;-11
2022/08/05 04:56:26;;;;;;;2.33;1.35;;;28.10;46.30;;;-147.20;100.00;58430.41;5114454;28;20047;-11
2022/08/05 04:58:52;;;;;;;1.45;1.35;;;28.00;46.30;;;-147.20;100.00;58430.41;5113985;28;20462;-10
2022/08/05 05:01:18;;;;;;;2.17;1.50;;;28.00;46.30;;;-147.20;100.00;58430.41;5114206;28;20054;-10
2022/08/05 05:03:44;;;;;;;1.70;1.40;;;28.00;46.30;;;-147.20;100.00;58430.41;5114044;28;20048;-11
2022/08/05 05:06:12;;;;;;;1.38;1.27;;;28.00;46.30;;;-147.20;100.00;58430.41;5114140;28;20055;-11
2022/08/05 05:08:38;;;;;;;2.30;1.88;;;28.00;46.30;;;-147.20;100.00;58430.41;5113828;28;20043;-11
2022/08/05 05:11:05;;;;;;;2.28;1.40;;;28.00;46.30;;;-147.20;100.00;58430.41;5095712;28;20139;-11
2022/08/05 05:13:31;;;;;;;1.30;1.20;;;28.00;46.30;;;-147.20;100.00;58430.41;5079061;28;20447;-10
2022/08/05 05:15:57;;;;;;;1.50;1.40;;;28.00;46.30;;;-147.20;100.00;58430.41;5113865;28;20078;-10
2022/08/05 05:18:24;;;;;;;1.60;1.50;;;28.10;46.40;;;-147.20;100.00;58430.41;5113847;28;20484;-11
2022/08/05 05:20:49;;;;;;;2.88;1.70;;;28.00;46.30;;;-147.20;100.00;58430.41;5113835;28;20052;-10
2022/08/05 05:23:15;;;;;;;2.08;1.35;;;28.10;46.40;;;-147.20;100.00;58430.41;5114347;28;20051;-11
2022/08/05 05:25:43;;;;;;;2.15;1.60;;;28.10;46.30;;;-147.20;100.00;58430.41;5113800;28;20048;-10
2022/08/05 05:28:10;;;;;;;2.10;1.63;;;28.10;46.20;;;-147.20;100.00;58430.41;5094062;28;20547;-11
2022/08/05 05:30:38;;;;;;;1.50;1.40;;;28.10;46.20;;;-147.20;100.00;58430.41;5112568;28;20503;-10
2022/08/05 05:33:06;;;;;;;2.30;1.70;;;28.10;46.20;;;-147.20;100.00;58430.41;5095374;28;20123;-10
2022/08/05 05:35:33;;;;;;;1.80;1.33;;;28.10;46.20;;;-147.20;100.00;58430.41;5095285;28;20060;-10
2022/08/05 05:38:01;;;;;;;2.55;1.52;;;28.10;46.10;;;-147.20;100.00;58430.41;5113354;28;20059;-11
2022/08/05 05:40:29;;;;;;;1.77;1.35;;;28.10;46.10;;;-147.20;100.00;58430.41;5113284;28;20048;-11
2022/08/05 05:42:56;;;;;;;1.95;1.38;;;28.10;46.10;;;-147.20;100.00;58430.41;5113436;28;20066;-10
2022/08/05 05:45:22;;;;;;;1.48;1.38;;;28.10;46.10;;;-147.20;100.00;58430.41;5113536;28;20047;-10
2022/08/05 05:47:48;;;;;;;1.40;1.30;;;28.10;46.20;;;-147.20;100.00;58430.41;5113349;28;20048;-11
2022/08/05 05:50:16;;;;;;;2.05;1.50;;;28.10;46.20;;;-147.20;100.00;58430.41;5094990;28;20040;-10
2022/08/05 05:52:43;;;;;;;2.05;1.40;;;28.10;46.30;;;-147.20;100.00;58430.41;5113379;28;20075;-11
2022/08/05 05:55:11;;;;;;;1.70;1.55;;;28.10;46.30;;;-147.20;100.00;58430.41;5113672;28;20436;-11
2022/08/05 05:57:39;;;;;;;1.65;1.52;;;28.10;46.30;;;-147.20;100.00;58430.41;5113417;28;20043;-10
2022/08/05 06:00:13;;;;;;;1.58;1.48;;;28.10;46.30;;;-147.20;100.00;58430.41;5113053;28;20518;-10
2022/08/05 06:02:40;;;;;;;1.80;1.30;;;28.00;46.20;;;-147.20;100.00;58430.41;5113489;28;20051;-10
2022/08/05 06:05:10;;;;;;;5.38;1.92;;;28.00;46.30;;;-147.20;100.00;58430.41;5113397;28;20044;-10
2022/08/05 06:07:36;;;;;;;1.48;1.38;;;28.00;46.40;;;-147.20;100.00;58430.41;5113495;28;20046;-10
2022/08/05 06:10:04;;;;;;;1.75;1.40;;;28.00;46.40;;;-147.20;100.00;58430.41;5113109;28;20047;-10
2022/08/05 06:12:30;;;;;;;1.80;1.30;;;28.00;46.40;;;-147.20;100.00;58430.41;5113466;28;20079;-10
2022/08/05 06:14:56;;;;;;;1.80;1.40;;;28.00;46.40;;;-147.20;100.00;58430.41;5113010;28;20050;-11
2022/08/05 06:17:22;;;;;;;1.58;1.48;;;28.00;46.40;;;-147.20;100.00;58430.41;5112791;28;20039;-10
2022/08/05 06:19:48;;;;;;;1.63;1.30;;;28.00;46.40;;;-147.20;100.00;58430.41;5094949;28;20055;-11
2022/08/05 06:22:27;;;;;;;1.48;1.38;;;28.00;46.30;;;-147.20;100.00;58430.41;5113189;28;20477;-11
2022/08/05 06:24:52;;;;;;;1.75;1.30;;;28.00;46.30;;;-147.20;100.00;58430.41;5113347;28;20047;-10
2022/08/05 06:27:18;;;;;;;1.30;1.20;;;28.10;46.30;;;-147.20;100.00;58430.41;5112925;28;20436;-10
2022/08/05 06:29:44;;;;;;;1.55;1.23;;;28.10;46.20;;;-147.20;100.00;58430.41;5113103;28;20051;-10
2022/08/05 06:32:11;;;;;;;1.35;1.25;;;28.10;46.20;;;-147.20;100.00;58430.41;5094623;28;20044;-11
2022/08/05 06:34:37;;;;;;;1.60;1.50;;;28.10;46.20;;;-147.20;100.00;58430.41;5112760;28;20545;-10
2022/08/05 06:37:03;;;;;;;1.70;1.40;;;28.10;46.10;;;-147.20;100.00;58430.41;5112747;28;20181;-10
2022/08/05 06:39:28;;;;;;;1.63;1.52;;;28.10;46.10;;;-147.20;100.00;58430.41;5113268;28;20040;-10
2022/08/05 06:42:02;;;;;;;1.77;1.20;;;28.10;46.00;;;-147.20;100.00;58430.41;5115645;28;20040;-11
2022/08/05 06:44:30;;;;;;;1.42;1.33;;;28.10;46.00;;;-147.20;100.00;58430.41;5116949;28;20040;-11
2022/08/05 06:46:57;;;;;;;1.60;1.50;;;28.20;46.00;;;-147.20;100.00;58430.41;5116616;28;20057;-10
2022/08/05 06:49:24;;;;;;;1.83;1.50;;;28.20;45.90;;;-147.20;100.00;58430.41;5116826;28;20050;-10
2022/08/05 06:51:50;;;;;;;1.60;1.30;;;28.30;46.30;;;-147.20;100.00;58430.41;5116163;28;20039;-11
2022/08/05 06:54:15;;;;;;;1.33;1.23;;;28.40;45.60;;;-147.20;100.00;58430.41;5096696;28;20193;-11
2022/08/05 06:56:41;;;;;;;1.80;1.50;;;28.50;45.50;;;-147.20;100.00;58430.41;5116001;28;20048;-10
2022/08/05 06:59:08;;;;;;;1.33;1.23;;;28.60;45.30;;;-147.20;100.00;58430.41;5115797;28;20048;-10
2022/08/05 07:01:34;;;;;;;1.40;1.30;;;28.70;45.10;;;-147.20;100.00;58430.41;5116081;28;20051;-10
2022/08/05 07:04:00;;;;;;;2.53;1.38;;;28.70;45.00;;;-147.20;100.00;58430.41;5097968;28;20047;-10
2022/08/05 07:06:26;;;;;;;1.30;1.20;;;28.70;45.00;;;-147.20;100.00;58430.41;5116213;28;20967;-11
2022/08/05 07:08:52;;;;;;;2.22;1.60;;;28.70;45.00;;;-147.20;100.00;58430.41;5116229;28;20056;-11
2022/08/05 07:11:19;;;;;;;1.65;1.35;;;28.70;45.00;;;-147.20;100.00;58430.41;5116004;28;20047;-10
2022/08/05 07:19:19;;;;;;;1.08;1.05;;;28.70;45.20;;;-147.20;100.00;58430.41;5115424;28;20054;-10
2022/08/05 07:21:49;;;;;;;1.50;1.40;;;28.60;45.30;;;-147.20;100.00;58430.41;5115433;28;20116;-10
2022/08/05 07:24:16;;;;;;;2.03;1.50;;;28.60;45.40;;;-147.20;100.00;58430.41;5115406;28;20134;-11
2022/08/05 07:26:42;;;;;;;1.40;1.30;;;28.50;45.40;;;-147.20;100.00;58430.41;5080415;28;20066;-11
2022/08/05 07:29:09;;;;;;;1.58;1.42;;;28.50;45.40;;;-147.20;100.00;58430.41;5115183;28;20052;-10
2022/08/05 07:31:35;;;;;;;2.05;1.77;;;28.50;45.50;;;-147.20;100.00;58430.41;5115589;28;20151;-10
2022/08/05 07:34:01;;;;;;;1.65;1.40;;;28.50;45.50;;;-147.20;100.00;58430.41;5115217;28;20043;-10
2022/08/05 07:36:28;;;;;;;1.30;1.20;;;28.40;45.50;;;-147.20;100.00;58430.41;5115463;28;20044;-11
2022/08/05 07:38:55;;;;;;;1.38;1.27;;;28.40;45.60;;;-147.20;100.00;58430.41;5115297;28;20503;-10
2022/08/05 07:41:22;;;;;;;2.50;1.40;;;28.40;45.70;;;-147.20;100.00;58430.41;5115372;28;20079;-11
2022/08/05 07:43:49;;;;;;;1.38;1.27;;;28.30;45.70;;;-147.20;100.00;58430.41;5115419;28;20090;-10
2022/08/05 07:46:15;;;;;;;1.60;1.42;;;28.30;45.80;;;-147.20;100.00;58430.41;5115304;28;20047;-11
2022/08/05 07:48:40;;;;;;;1.83;1.00;;;28.30;45.90;;;-147.20;100.00;58430.41;5115303;28;20055;-11
2022/08/05 07:51:06;;;;;;;1.35;1.17;;;28.30;45.90;;;-147.20;100.00;58430.41;5115273;28;20065;-10
2022/08/05 07:53:32;;;;;;;1.75;1.15;;;28.30;45.90;;;-147.20;100.00;58430.41;5114215;28;20035;-10
2022/08/05 07:55:58;;;;;;;2.90;1.30;;;28.20;45.90;;;-147.20;100.00;58430.41;5096632;28;20043;-10
2022/08/05 07:58:23;;;;;;;1.70;1.33;;;28.20;45.90;;;-147.20;100.00;58430.41;5115078;28;20044;-10
2022/08/05 08:00:49;;;;;;;1.63;1.33;;;28.20;46.00;;;-147.20;100.00;58430.41;5115343;28;20043;-10
2022/08/05 08:03:15;;;;;;;1.63;1.20;;;28.20;45.90;;;-147.20;100.00;58430.41;5115129;28;20052;-10
2022/08/05 08:05:43;;;;;;;2.00;1.27;;;28.20;45.90;;;-147.20;100.00;58430.41;5114965;28;20197;-10
2022/08/05 08:08:12;;;;;;;1.83;1.30;;;28.20;46.00;;;-147.20;100.00;58430.41;5114942;28;20056;-10
2022/08/05 08:10:39;;;;;;;1.50;1.00;;;28.20;46.00;;;-147.20;100.00;58430.41;5115032;28;20048;-11
2022/08/05 08:13:05;;;;;;;1.52;1.30;;;28.20;45.90;;;-147.20;100.00;58430.41;5115035;28;20067;-10
2022/08/05 08:15:31;;;;;;;2.00;1.38;;;28.20;45.90;;;-147.20;100.00;58430.41;5113822;28;20440;-11
2022/08/05 08:17:57;;;;;;;1.58;1.40;;;28.20;46.00;;;-147.20;100.00;58430.41;5079165;28;20113;-11
2022/08/05 08:20:24;;;;;;;1.88;1.30;;;28.20;46.00;;;-147.20;100.00;58430.41;5114763;28;20074;-12
2022/08/05 08:22:59;;;;;;;1.52;1.30;;;28.20;46.00;;;-147.20;100.00;58430.41;5114812;28;20459;-11
2022/08/05 08:25:27;;;;;;;1.92;1.10;;;28.20;46.00;;;-147.20;100.00;58430.41;5114306;28;20047;-11
2022/08/05 08:27:54;;;;;;;1.25;1.15;;;28.20;46.00;;;-147.20;100.00;58430.41;5114722;28;20064;-11
2022/08/05 08:30:20;;;;;;;1.40;1.30;;;28.20;46.00;;;-147.20;100.00;58430.41;5096474;28;20047;-11
2022/08/05 08:32:46;;;;;;;1.42;1.33;;;28.20;46.00;;;-147.20;100.00;58430.41;5114473;28;20120;-11
2022/08/05 08:35:12;;;;;;;3.03;2.03;;;28.20;46.00;;;-147.20;100.00;58430.41;5113136;28;20073;-11
2022/08/05 08:37:38;;;;;;;2.85;1.50;;;28.20;46.00;;;-147.20;100.00;58430.41;5094854;28;20032;-11
2022/08/05 08:40:05;;;;;;;1.33;1.10;;;28.10;46.00;;;-147.20;100.00;58430.41;5114312;28;20051;-11
2022/08/05 08:42:32;;;;;;;1.60;1.40;;;28.20;46.00;;;-147.20;100.00;58430.41;5114453;28;20051;-11
2022/08/05 08:44:59;;;;;;;2.13;1.48;;;28.20;46.10;;;-147.20;100.00;58430.41;5114506;28;20477;-11
2022/08/05 08:47:27;;;;;;;1.55;1.30;;;28.20;46.10;;;-147.20;100.00;58430.41;5114299;28;20071;-10
2022/08/05 08:49:55;;;;;;;3.13;1.95;;;28.20;46.00;;;-147.20;100.00;58430.41;5114160;28;20425;-10
2022/08/05 08:52:32;;;;;;;1.52;1.33;;;28.20;46.00;;;-147.20;100.00;58430.41;5114141;28;20097;-10
2022/08/05 08:54:59;;;;;;;1.42;1.30;;;28.20;46.00;;;-147.20;100.00;58430.41;5094579;28;20040;-10
2022/08/05 08:57:25;;;;;;;1.98;1.20;;;28.10;46.10;;;-147.20;100.00;58430.41;5114311;28;20052;-11
2022/08/05 08:59:51;;;;;;;2.10;1.30;;;28.20;46.10;;;-147.20;100.00;58430.41;5093649;28;20056;-11
2022/08/05 09:02:19;;;;;;;1.30;1.20;;;28.20;46.10;;;-147.20;100.00;58430.41;5114385;28;20066;-11
2022/08/05 09:04:46;;;;;;;1.33;1.23;;;28.10;46.10;;;-147.20;100.00;58430.41;5114281;28;20134;-11
2022/08/05 09:07:12;;;;;;;2.10;1.30;;;28.10;46.10;;;-147.20;100.00;58430.41;5114062;28;20130;-11
2022/08/05 09:09:38;;;;;;;1.35;1.25;;;28.10;46.00;;;-147.20;100.00;58430.41;5113425;28;20052;-11
2022/08/05 09:12:07;;;;;;;1.60;1.33;;;28.10;46.10;;;-147.20;100.00;58430.41;5113940;28;20116;-10
2022/08/05 09:14:34;;;;;;;2.35;1.33;;;28.10;46.20;;;-147.20;100.00;58430.41;5113084;28;20051;-10
2022/08/05 09:17:11;;;;;;;2.15;1.50;;;28.10;46.20;;;-147.20;100.00;58430.41;5113675;28;20074;-10
2022/08/05 09:19:38;;;;;;;2.13;1.05;;;28.10;46.20;;;-147.20;100.00;58430.41;5113910;28;20143;-10
2022/08/05 09:22:09;;;;;;;1.30;1.00;;;28.10;46.20;;;-147.20;100.00;58430.41;5113686;28;20492;-10
2022/08/05 09:24:38;;;;;;;1.25;1.15;;;28.10;46.30;;;-147.20;100.00;58430.41;5113986;28;20051;-10
2022/08/05 09:27:08;;;;;;;1.73;1.52;;;28.10;46.30;;;-147.20;100.00;58430.41;5113635;28;20466;-11
2022/08/05 09:29:44;;;;;;;1.70;1.50;;;28.10;46.20;;;-147.20;100.00;58430.41;5113551;28;20047;-11
2022/08/05 09:32:11;;;;;;;2.78;1.55;;;28.10;46.20;;;-147.20;100.00;58430.41;5113584;28;20047;-10
2022/08/05 09:34:51;;;;;;;1.65;1.20;;;28.10;46.30;;;-147.20;100.00;58430.41;5113636;28;20051;-10
2022/08/05 09:37:23;;;;;;;3.08;1.50;;;28.10;46.30;;;-147.20;100.00;58430.41;5113655;28;20401;-11
2022/08/05 09:39:49;;;;;;;2.33;1.23;;;28.10;46.30;;;-147.20;100.00;58430.41;5113868;28;20604;-10
2022/08/05 09:42:17;;;;;;;1.52;1.13;;;28.10;46.30;;;-147.20;100.00;58430.41;5113800;28;20039;-10
2022/08/05 09:44:46;;;;;;;1.30;1.20;;;28.10;46.30;;;-147.20;100.00;58430.41;5112157;28;20043;-11
2022/08/05 09:47:18;;;;;;;1.80;1.40;;;28.10;46.30;;;-147.20;100.00;58430.41;5112931;28;20055;-10
2022/08/05 09:49:48;;;;;;;1.65;1.40;;;28.10;46.20;;;-147.20;100.00;58430.41;5109716;28;20473;-11
2022/08/05 09:52:19;;;;;;;1.33;1.23;;;28.10;46.20;;;-147.20;100.00;58430.41;5113416;28;20052;-11
2022/08/05 09:55:06;;;;;;;1.42;1.23;;;28.10;46.20;;;-147.20;100.00;58430.41;5113435;28;20054;-11
2022/08/05 09:57:46;;;;;;;1.83;1.10;;;28.10;46.20;;;-147.20;100.00;58430.41;5112961;28;20507;-11
2022/08/05 10:00:23;;;;;;;1.60;1.50;;;28.10;46.30;;;-147.20;100.00;58430.41;5113195;28;20056;-11
2022/08/05 10:02:53;;;;;;;1.52;1.20;;;28.10;46.20;;;-147.20;100.00;58430.41;5113250;28;20112;-10
2022/08/05 10:05:28;;;;;;;3.05;1.33;;;28.10;46.10;;;-147.20;100.00;58430.41;5113282;28;20054;-11
2022/08/05 10:07:59;;;;;;;1.95;1.40;;;28.10;46.10;;;-147.20;100.00;58430.41;5113001;28;20052;-11
2022/08/05 10:10:44;;;;;;;1.90;1.10;;;28.10;46.10;;;-147.20;100.00;58430.41;5112994;28;20066;-10
2022/08/05 10:13:11;;;;;;;4.20;1.98;;;28.10;46.10;;;-147.20;100.00;58430.41;5113013;28;20404;-11